Time;durP1;ratioP1;P1;durP2;ratioP2;P2;SDS_P1;SDS_P2;PMS_P1;PMS_P2;Temp;Humidity;BMP_temperature;BMP_pressure;BME280_temperature;BME280_humidity;BME280_pressure;Samples;Min_cycle;Max_cycle;Signal;HPM_P1;HPM_P2
2021/04/19 00:00:31;;;;;;;23.70;8.10;;;;;;;9.15;58.22;102101.75;4943169;28;20086;-74
2021/04/19 00:02:58;;;;;;;18.13;7.63;;;;;;;9.15;58.33;102099.97;4929474;28;20058;-74
2021/04/19 00:05:25;;;;;;;16.00;7.05;;;;;;;9.07;58.60;102094.41;4942421;28;20043;-74
2021/04/19 00:07:53;;;;;;;17.65;7.50;;;;;;;9.15;58.19;102099.97;4898660;29;20491;-74
2021/04/19 00:10:20;;;;;;;16.58;6.80;;;;;;;9.14;58.61;102103.53;4924737;29;20362;-74
2021/04/19 00:12:47;;;;;;;16.42;6.65;;;;;;;9.10;58.59;102094.22;4918639;29;20055;-74
2021/04/19 00:15:15;;;;;;;21.65;7.72;;;;;;;9.11;58.63;102101.13;4918460;29;20059;-74
2021/04/19 00:17:41;;;;;;;17.05;7.32;;;;;;;9.10;58.95;102102.91;4915678;29;20068;-74
2021/04/19 00:20:09;;;;;;;20.02;9.52;;;;;;;9.06;58.69;102096.22;4921586;29;20066;-74
2021/04/19 00:22:35;;;;;;;21.85;9.38;;;;;;;9.07;58.54;102104.91;4928744;29;20051;-74
2021/04/19 00:25:02;;;;;;;21.40;9.55;;;;;;;9.01;58.73;102093.06;4904806;29;20059;-74
2021/04/19 00:27:29;;;;;;;15.82;7.63;;;;;;;9.01;58.64;102094.84;4923929;29;20055;-74
2021/04/19 00:29:55;;;;;;;19.70;7.45;;;;;;;8.93;59.01;102084.06;4901896;29;20059;-74
2021/04/19 00:32:21;;;;;;;17.90;7.68;;;;;;;8.87;59.44;102091.38;4902090;29;20118;-74
2021/04/19 00:34:47;;;;;;;16.88;8.75;;;;;;;8.80;59.49;102089.28;4921481;29;20099;-74
2021/04/19 00:37:14;;;;;;;22.02;8.98;;;;;;;8.74;59.62;102081.84;4919718;29;20059;-74
2021/04/19 00:39:41;;;;;;;15.82;7.85;;;;;;;8.72;59.77;102092.41;4928604;29;20110;-74
2021/04/19 00:42:07;;;;;;;20.73;8.40;;;;;;;8.69;59.30;102083.00;4901572;29;20067;-74
2021/04/19 00:44:33;;;;;;;16.33;7.90;;;;;;;8.63;59.46;102077.34;4922797;29;20258;-74
2021/04/19 00:47:01;;;;;;;19.80;9.15;;;;;;;8.66;59.72;102082.38;4903072;29;20066;-74
2021/04/19 00:49:28;;;;;;;23.95;9.68;;;;;;;8.60;60.74;102074.94;4927211;29;20166;-74
2021/04/19 00:51:55;;;;;;;17.45;8.65;;;;;;;8.59;60.55;102070.66;4924264;29;20479;-74
2021/04/19 00:54:24;;;;;;;23.80;8.77;;;;;;;8.54;60.23;102070.94;4919559;29;20055;-74
2021/04/19 00:56:51;;;;;;;15.70;7.93;;;;;;;8.47;60.33;102074.94;4901627;29;20365;-74
2021/04/19 00:59:17;;;;;;;20.98;9.23;;;;;;;8.46;60.26;102070.63;4905251;29;20052;-74
2021/04/19 01:01:45;;;;;;;24.52;9.50;;;;;;;8.46;60.87;102068.00;4925069;29;20052;-74
2021/04/19 01:04:12;;;;;;;25.83;9.38;;;;;;;8.46;60.98;102071.47;4918471;29;20114;-74
2021/04/19 01:06:38;;;;;;;16.58;8.68;;;;;;;8.45;61.13;102069.81;4909366;29;20075;-74
2021/04/19 01:09:06;;;;;;;22.10;10.07;;;;;;;8.34;61.69;102053.94;4907728;29;20051;-74
2021/04/19 01:11:32;;;;;;;21.67;10.13;;;;;;;8.31;61.50;102055.00;4916582;29;20080;-74
2021/04/19 01:13:58;;;;;;;18.60;9.15;;;;;;;8.28;62.17;102054.34;4927265;29;20063;-74
2021/04/19 01:16:24;;;;;;;20.70;10.02;;;;;;;8.24;62.45;102056.31;4917295;29;20055;-74
2021/04/19 01:18:50;;;;;;;22.88;9.85;;;;;;;8.19;62.45;102045.31;4917354;29;20073;-74
2021/04/19 01:21:17;;;;;;;18.70;9.55;;;;;;;8.21;61.98;102051.31;4912743;29;20051;-74
2021/04/19 01:23:43;;;;;;;22.08;9.60;;;;;;;8.23;61.78;102052.06;4920000;29;20047;-74
2021/04/19 01:26:09;;;;;;;22.08;10.20;;;;;;;8.17;62.54;102049.81;4926584;29;20058;-74
2021/04/19 01:28:48;;;;;;;26.23;11.60;;;;;;;8.16;62.76;102053.38;4927474;28;20059;-74
2021/04/19 01:31:14;;;;;;;23.15;10.60;;;;;;;8.15;62.38;102056.09;4915589;29;20060;-74
2021/04/19 01:33:41;;;;;;;22.75;10.52;;;;;;;8.10;62.93;102048.56;4909806;29;20341;-74
2021/04/19 01:36:07;;;;;;;25.30;10.40;;;;;;;8.04;62.89;102049.78;4918420;29;20142;-74
2021/04/19 01:38:33;;;;;;;22.90;10.82;;;;;;;7.97;63.04;102052.91;4918874;29;20471;-74
2021/04/19 01:41:00;;;;;;;25.52;9.82;;;;;;;7.89;63.30;102058.63;4920087;29;20047;-74
2021/04/19 01:43:26;;;;;;;28.65;10.15;;;;;;;7.89;63.71;102051.63;4920173;29;20059;-73
2021/04/19 01:45:53;;;;;;;20.08;10.15;;;;;;;7.87;64.24;102052.66;4927079;29;20550;-73
2021/04/19 01:48:21;;;;;;;23.63;10.05;;;;;;;7.84;63.67;102039.78;4916001;29;20436;-74
2021/04/19 01:50:48;;;;;;;20.95;9.02;;;;;;;7.83;63.31;102044.19;4912000;29;20058;-74
2021/04/19 01:53:15;;;;;;;25.30;10.27;;;;;;;7.78;63.76;102043.66;4925689;29;20048;-74
2021/04/19 01:55:41;;;;;;;25.15;10.32;;;;;;;7.82;63.51;102050.34;4904052;29;20055;-74
2021/04/19 01:58:11;;;;;;;24.85;10.45;;;;;;;7.80;64.05;102061.81;4927680;29;20054;-74
2021/04/19 02:00:41;;;;;;;26.20;10.35;;;;;;;7.76;63.41;102063.78;4923809;29;20067;-74
2021/04/19 02:03:07;;;;;;;24.60;10.15;;;;;;;7.80;63.58;102069.66;4925599;29;20055;-74
2021/04/19 02:05:45;;;;;;;27.45;10.60;;;;;;;7.71;64.74;102058.03;4939152;29;20051;-74
2021/04/19 02:08:26;;;;;;;23.50;10.45;;;;;;;7.72;63.57;102057.06;4920189;29;20063;-74
2021/04/19 02:11:10;;;;;;;26.60;10.50;;;;;;;7.70;63.95;102054.59;4923548;29;20063;-74
2021/04/19 02:13:44;;;;;;;22.77;11.32;;;;;;;7.60;64.26;102050.84;4922337;29;20486;-74
2021/04/19 02:16:31;;;;;;;20.10;9.98;;;;;;;7.60;63.38;102056.06;4921549;29;20063;-74
2021/04/19 02:19:31;;;;;;;22.65;10.75;;;;;;;7.60;64.17;102060.47;4920217;29;20530;-74
2021/04/19 02:22:06;;;;;;;26.63;11.43;;;;;;;7.52;64.70;102048.72;4925413;29;20051;-74
2021/04/19 02:24:38;;;;;;;27.48;11.73;;;;;;;7.45;64.28;102047.47;4917359;29;20051;-74
2021/04/19 02:27:11;;;;;;;29.55;11.20;;;;;;;7.41;65.48;102048.59;4925603;29;20110;-74
2021/04/19 02:29:43;;;;;;;23.88;11.18;;;;;;;7.35;65.42;102048.97;4910230;29;20163;-74
2021/04/19 02:32:34;;;;;;;29.83;12.15;;;;;;;7.29;65.85;102049.31;4903280;29;20056;-74
2021/04/19 02:35:05;;;;;;;26.13;11.32;;;;;;;7.24;66.39;102048.78;4890541;29;20059;-74
2021/04/19 02:37:32;;;;;;;41.20;12.63;;;;;;;7.20;66.62;102040.31;4926883;29;20483;-74
2021/04/19 02:40:01;;;;;;;25.60;11.63;;;;;;;7.20;66.25;102040.31;4925710;29;20078;-74
2021/04/19 02:42:28;;;;;;;31.08;11.40;;;;;;;7.17;66.59;102040.47;4914756;29;20048;-74
2021/04/19 02:44:56;;;;;;;25.20;11.82;;;;;;;7.17;66.06;102031.81;4903552;29;20299;-74
2021/04/19 02:47:23;;;;;;;25.87;11.80;;;;;;;7.19;66.32;102038.59;4918698;29;20058;-74
2021/04/19 02:49:50;;;;;;;29.13;12.35;;;;;;;7.21;66.32;102041.13;4908640;29;20848;-74
2021/04/19 02:52:17;;;;;;;31.58;13.50;;;;;;;7.18;65.72;102036.13;4917125;29;20126;-74
2021/04/19 02:54:45;;;;;;;27.58;11.63;;;;;;;7.20;66.43;102044.69;4926296;29;20487;-73
2021/04/19 02:57:29;;;;;;;30.45;11.68;;;;;;;7.24;65.80;102056.63;4909601;29;20143;-73
2021/04/19 02:59:58;;;;;;;28.23;13.38;;;;;;;7.22;66.48;102043.66;4922355;29;20738;-75
2021/04/19 03:02:26;;;;;;;28.98;12.68;;;;;;;7.19;66.83;102040.38;4932094;29;20055;-73
2021/04/19 03:04:53;;;;;;;28.40;12.38;;;;;;;7.19;67.25;102050.81;4911452;29;20505;-73
2021/04/19 03:07:24;;;;;;;27.63;13.00;;;;;;;7.18;66.89;102052.59;4927652;29;20142;-73
2021/04/19 03:10:06;;;;;;;27.15;13.57;;;;;;;7.15;66.81;102044.13;4898060;29;20055;-73
2021/04/19 03:12:35;;;;;;;25.20;12.50;;;;;;;7.15;66.75;102044.97;4903093;29;20051;-73
2021/04/19 03:15:06;;;;;;;31.30;13.10;;;;;;;7.06;66.99;102048.16;4917584;29;20146;-73
2021/04/19 03:17:33;;;;;;;35.67;13.77;;;;;;;7.01;66.97;102045.78;4908388;29;20055;-73
2021/04/19 03:20:07;;;;;;;33.80;13.30;;;;;;;7.00;67.13;102048.50;4897201;29;20072;-73
2021/04/19 03:22:40;;;;;;;33.97;13.02;;;;;;;6.93;68.00;102054.09;4923818;29;20138;-73
2021/04/19 03:25:08;;;;;;;30.10;12.35;;;;;;;6.92;66.94;102049.81;4921791;29;20459;-73
2021/04/19 03:27:38;;;;;;;27.80;13.00;;;;;;;6.88;66.82;102047.47;4914519;29;20055;-73
2021/04/19 03:30:06;;;;;;;34.15;13.15;;;;;;;6.91;67.09;102053.34;4918022;29;20051;-73
2021/04/19 03:32:35;;;;;;;31.33;13.63;;;;;;;6.83;67.55;102041.72;4914479;29;20067;-73
2021/04/19 03:35:08;;;;;;;30.23;13.63;;;;;;;6.81;67.36;102038.34;4924993;29;20551;-73
2021/04/19 03:37:39;;;;;;;37.05;14.98;;;;;;;6.79;68.02;102042.81;4913987;29;20562;-73
2021/04/19 03:40:20;;;;;;;32.42;13.95;;;;;;;6.78;67.95;102048.97;4917625;29;20419;-73
2021/04/19 03:42:49;;;;;;;29.25;13.23;;;;;;;6.71;67.35;102044.09;4926250;29;20106;-73
2021/04/19 03:45:17;;;;;;;34.15;14.52;;;;;;;6.68;68.27;102041.69;4912893;29;20048;-73
2021/04/19 03:47:46;;;;;;;27.10;14.97;;;;;;;6.68;68.23;102046.91;4925199;29;20062;-73
2021/04/19 03:50:13;;;;;;;27.77;14.75;;;;;;;6.68;68.22;102046.91;4904326;29;20091;-73
2021/04/19 03:52:46;;;;;;;31.40;14.07;;;;;;;6.62;67.97;102047.25;4919986;29;20613;-73
2021/04/19 03:55:14;;;;;;;33.33;14.27;;;;;;;6.63;67.78;102043.72;4909969;29;20059;-73
2021/04/19 03:57:43;;;;;;;34.45;14.57;;;;;;;6.65;67.89;102041.03;4923669;29;20060;-73
2021/04/19 04:00:17;;;;;;;30.40;14.02;;;;;;;6.63;68.03;102043.72;4900632;29;20547;-73
2021/04/19 04:02:52;;;;;;;33.42;15.48;;;;;;;6.62;68.70;102038.59;4919938;29;20386;-73
2021/04/19 04:05:20;;;;;;;37.75;15.82;;;;;;;6.62;69.32;102039.44;4924364;29;20082;-73
2021/04/19 04:07:48;;;;;;;;;;;;;;;6.63;69.50;102038.50;4900943;29;20060;-73
2021/04/19 04:10:17;;;;;;;33.40;14.00;;;;;;;6.65;69.10;102039.25;4918903;29;19927;-73
2021/04/19 04:12:43;;;;;;;31.40;14.70;;;;;;;6.64;69.27;102026.31;4914293;29;20055;-73
2021/04/19 04:15:09;;;;;;;30.27;14.77;;;;;;;6.68;69.69;102030.41;4924521;29;20491;-73
2021/04/19 04:17:37;;;;;;;34.85;15.13;;;;;;;6.68;69.82;102036.47;4912131;29;20094;-73
2021/04/19 04:20:05;;;;;;;33.17;14.70;;;;;;;6.73;69.53;102041.41;4913486;29;20055;-74
2021/04/19 04:22:32;;;;;;;34.10;15.93;;;;;;;6.72;69.80;102035.38;4921585;29;20063;-73
2021/04/19 04:24:58;;;;;;;31.45;15.68;;;;;;;6.69;69.78;102029.50;4919613;29;20499;-73
2021/04/19 04:27:26;;;;;;;35.85;15.57;;;;;;;6.71;70.08;102033.69;4907397;29;20143;-73
2021/04/19 04:29:52;;;;;;;32.78;16.80;;;;;;;6.76;69.65;102032.56;4917251;29;20051;-73
2021/04/19 04:32:18;;;;;;;38.33;17.10;;;;;;;6.80;69.90;102036.66;4916939;29;20480;-73
2021/04/19 04:34:44;;;;;;;35.97;16.83;;;;;;;6.82;70.41;102030.44;4912586;29;20075;-73
2021/04/19 04:37:10;;;;;;;35.88;16.23;;;;;;;6.87;70.23;102036.19;4922536;29;20491;-73
2021/04/19 04:39:37;;;;;;;38.25;16.90;;;;;;;6.95;69.96;102032.31;4922317;29;20071;-73
2021/04/19 04:42:05;;;;;;;38.60;18.40;;;;;;;6.93;69.95;102021.94;4926506;29;20409;-73
2021/04/19 04:44:39;;;;;;;;;;;;;;;7.01;70.19;102024.94;4919128;29;20498;-73
2021/04/19 04:47:28;;;;;;;47.72;18.67;;;;;;;7.04;70.83;102032.59;4898678;29;19968;-73
2021/04/19 04:50:05;;;;;;;43.55;18.67;;;;;;;7.04;71.31;102032.59;4910785;29;20170;-73
2021/04/19 04:52:37;;;;;;;35.25;17.27;;;;;;;7.12;70.40;102038.16;4920146;29;20403;-73
2021/04/19 04:55:05;;;;;;;44.55;19.77;;;;;;;7.16;71.12;102036.22;4923080;29;20044;-73
2021/04/19 04:57:32;;;;;;;45.03;19.00;;;;;;;7.19;72.06;102035.16;4917036;29;20507;-73
2021/04/19 04:59:59;;;;;;;37.80;19.73;;;;;;;7.18;72.49;102036.13;4919865;29;20415;-73
2021/04/19 05:02:29;;;;;;;43.33;19.88;;;;;;;7.23;72.88;102041.88;4918276;29;20052;-73
2021/04/19 05:04:56;;;;;;;37.90;19.23;;;;;;;7.22;72.92;102038.44;4924946;29;20107;-73
2021/04/19 05:07:23;;;;;;;40.47;20.67;;;;;;;7.25;72.63;102040.00;4913445;29;20106;-73
2021/04/19 05:09:49;;;;;;;38.25;20.73;;;;;;;7.20;72.99;102026.44;4920752;29;20075;-74
2021/04/19 05:12:17;;;;;;;43.15;21.42;;;;;;;7.24;72.47;102040.97;4921328;29;20055;-74
2021/04/19 05:15:09;;;;;;;48.73;23.10;;;;;;;7.24;73.08;102030.53;4917200;29;20063;-75
2021/04/19 05:17:36;;;;;;;48.38;19.98;;;;;;;7.22;73.62;102045.44;4926997;29;20048;-74
2021/04/19 05:20:05;;;;;;;38.08;20.13;;;;;;;7.21;74.68;102038.53;4921131;29;20123;-74
2021/04/19 05:22:31;;;;;;;;;;;;;;;7.25;74.85;102040.00;4925104;29;20056;-74
2021/04/19 05:24:57;;;;;;;42.50;20.85;;;;;;;7.25;75.65;102045.22;4899443;29;19953;-73
2021/04/19 05:27:23;;;;;;;40.88;20.02;;;;;;;7.24;74.75;102052.22;4918839;28;20056;-74
2021/04/19 05:29:50;;;;;;;43.17;21.23;;;;;;;7.31;75.27;102056.16;4927050;29;20111;-74
2021/04/19 05:32:18;;;;;;;38.15;21.30;;;;;;;7.33;75.27;102050.81;4911755;29;20063;-76
2021/04/19 05:34:44;;;;;;;45.28;21.67;;;;;;;7.40;75.26;102061.72;4916757;29;20048;-76
2021/04/19 05:37:11;;;;;;;40.97;20.65;;;;;;;7.42;74.91;102070.28;4918918;29;20058;-76
2021/04/19 05:39:38;;;;;;;43.25;21.38;;;;;;;7.39;75.63;102050.44;4921205;29;20044;-74
2021/04/19 05:42:07;;;;;;;39.33;20.38;;;;;;;7.29;74.83;102044.09;4913417;29;20597;-77
2021/04/19 05:44:35;;;;;;;40.47;19.48;;;;;;;7.29;75.15;102039.75;4926425;29;20106;-75
2021/04/19 05:47:01;;;;;;;40.95;20.30;;;;;;;7.28;75.29;102040.66;4928771;29;20055;-78
2021/04/19 05:49:28;;;;;;;40.47;21.45;;;;;;;7.26;76.93;102044.31;4903709;29;20043;-78
2021/04/19 05:52:00;;;;;;;40.50;21.92;;;;;;;7.32;76.63;102060.41;4928909;29;20052;-78
2021/04/19 05:54:26;;;;;;;43.33;21.52;;;;;;;7.27;76.99;102052.06;4915504;29;20066;-78
2021/04/19 05:57:04;;;;;;;46.47;23.85;;;;;;;7.23;78.05;102047.09;4925587;29;20492;-77
2021/04/19 05:59:44;;;;;;;46.60;23.58;;;;;;;7.22;77.86;102046.25;4899040;29;20427;-78
2021/04/19 06:02:14;;;;;;;44.50;22.15;;;;;;;7.24;77.59;102056.63;4910619;29;20330;-76
2021/04/19 06:04:54;;;;;;;37.15;21.27;;;;;;;7.28;77.02;102058.94;4928626;29;20051;-77
2021/04/19 06:07:38;;;;;;;41.42;21.35;;;;;;;7.37;77.67;102061.91;4917668;29;20411;-77
2021/04/19 06:10:07;;;;;;;40.95;21.42;;;;;;;7.41;77.24;102071.22;4923533;29;20060;-77
2021/04/19 06:12:36;;;;;;;38.03;21.15;;;;;;;7.43;76.91;102067.59;4923312;29;20443;-77
2021/04/19 06:15:09;;;;;;;37.45;20.83;;;;;;;7.45;76.61;102063.13;4918513;29;20051;-75
2021/04/19 06:17:36;;;;;;;39.17;19.75;;;;;;;7.49;77.06;102069.81;4918669;29;20434;-77
2021/04/19 06:20:03;;;;;;;36.85;20.90;;;;;;;7.58;77.26;102068.41;4925213;29;20103;-75
2021/04/19 06:22:29;;;;;;;38.72;20.77;;;;;;;7.56;77.26;102059.00;4895124;29;20060;-75
2021/04/19 06:24:56;;;;;;;36.30;20.20;;;;;;;7.63;77.54;102062.91;4919668;29;20047;-77
2021/04/19 06:27:26;;;;;;;38.03;21.80;;;;;;;7.63;78.10;102063.72;4929582;29;20055;-80
2021/04/19 06:29:54;;;;;;;33.97;20.85;;;;;;;7.68;77.70;102066.03;4907627;29;20055;-76
2021/04/19 06:32:23;;;;;;;41.03;20.67;;;;;;;7.70;77.40;102070.25;4921879;29;20083;-77
2021/04/19 06:34:51;;;;;;;34.65;21.25;;;;;;;7.73;77.38;102066.59;4901110;29;20048;-77
2021/04/19 06:37:18;;;;;;;33.45;19.05;;;;;;;7.78;77.71;102079.34;4924536;29;20430;-75
2021/04/19 06:39:44;;;;;;;37.10;20.75;;;;;;;7.82;77.40;102086.94;4903615;29;20080;-78
2021/04/19 06:42:11;;;;;;;38.95;21.08;;;;;;;7.81;77.13;102082.63;4923866;29;20063;-75
2021/04/19 06:44:38;;;;;;;36.90;21.00;;;;;;;7.85;76.48;102091.09;4903559;29;20055;-76
2021/04/19 06:47:06;;;;;;;33.63;19.95;;;;;;;7.86;76.66;102077.94;4925083;29;20066;-75
2021/04/19 06:49:33;;;;;;;36.72;21.25;;;;;;;7.83;76.98;102078.13;4908126;29;20499;-75
2021/04/19 06:51:59;;;;;;;34.67;21.55;;;;;;;7.85;76.41;102080.66;4911204;29;20145;-75
2021/04/19 06:54:26;;;;;;;39.17;21.88;;;;;;;7.88;76.76;102076.09;4924096;29;20399;-75
2021/04/19 06:56:53;;;;;;;35.95;20.80;;;;;;;7.87;76.68;102079.63;4913893;29;20530;-75
2021/04/19 06:59:21;;;;;;;44.55;23.35;;;;;;;7.91;76.64;102073.25;4910303;29;20499;-75
2021/04/19 07:01:53;;;;;;;41.72;24.63;;;;;;;7.97;77.26;102076.41;4905420;29;20047;-76
2021/04/19 07:04:24;;;;;;;48.83;24.27;;;;;;;7.96;77.25;102072.13;4918605;29;20641;-75
2021/04/19 07:06:51;;;;;;;38.70;23.33;;;;;;;8.04;77.61;102072.50;4924461;29;20059;-76
2021/04/19 07:09:28;;;;;;;43.25;22.63;;;;;;;8.16;77.14;102082.13;4916562;29;20067;-76
2021/04/19 07:11:57;;;;;;;41.70;23.20;;;;;;;8.22;77.19;102079.13;4923515;29;20063;-75
2021/04/19 07:14:30;;;;;;;32.17;20.88;;;;;;;8.29;76.89;102076.94;4918279;29;20094;-75
2021/04/19 07:16:56;;;;;;;39.80;22.75;;;;;;;8.33;77.10;102070.59;4920773;29;20052;-75
2021/04/19 07:19:23;;;;;;;36.88;22.15;;;;;;;8.39;76.93;102077.16;4916162;29;20065;-75
2021/04/19 07:21:51;;;;;;;39.47;23.33;;;;;;;8.47;76.70;102077.56;4920543;29;20143;-75
2021/04/19 07:24:17;;;;;;;43.90;24.85;;;;;;;8.59;77.16;102075.91;4917814;29;20058;-75
2021/04/19 07:26:48;;;;;;;42.08;24.65;;;;;;;8.68;77.27;102065.66;4909553;29;20039;-75
2021/04/19 07:29:14;;;;;;;39.08;22.60;;;;;;;8.74;77.13;102067.00;4925812;29;20391;-75
2021/04/19 07:31:48;;;;;;;41.60;23.77;;;;;;;8.87;76.97;102070.44;4899149;29;20087;-76
2021/04/19 07:34:19;;;;;;;37.28;21.60;;;;;;;8.94;76.64;102060.41;4920733;29;20059;-75
2021/04/19 07:37:00;;;;;;;42.55;24.00;;;;;;;9.06;76.46;102067.41;4918810;29;20511;-75
2021/04/19 07:39:29;;;;;;;41.75;25.02;;;;;;;9.15;77.25;102068.53;4903162;29;20052;-75
2021/04/19 07:41:58;;;;;;;43.55;24.92;;;;;;;9.30;77.29;102064.88;4918350;29;20055;-75
2021/04/19 07:44:38;;;;;;;;;;;;;;;9.45;77.30;102064.75;4924490;29;20122;-75
2021/04/19 07:47:17;;;;;;;36.35;23.17;;;;;;;9.66;77.34;102052.75;4900069;29;19934;-75
2021/04/19 07:50:22;;;;;;;36.42;24.80;;;;;;;9.78;77.23;102056.25;4924896;29;20491;-75
2021/04/19 07:52:55;;;;;;;39.22;23.75;;;;;;;9.86;76.88;102061.78;4901596;29;20094;-76
2021/04/19 07:55:28;;;;;;;36.88;23.45;;;;;;;9.96;76.83;102061.94;4919879;29;20059;-75
2021/04/19 07:58:06;;;;;;;33.05;23.65;;;;;;;10.05;76.72;102053.38;4908290;29;20048;-75
2021/04/19 08:00:34;;;;;;;37.47;24.03;;;;;;;10.14;76.09;102051.06;4915747;29;20062;-75
2021/04/19 08:03:11;;;;;;;37.15;23.15;;;;;;;10.25;75.94;102062.44;4923947;29;20439;-75
2021/04/19 08:05:51;;;;;;;31.95;23.35;;;;;;;10.34;76.37;102071.41;4916875;29;20051;-75
2021/04/19 08:08:38;;;;;;;35.08;23.05;;;;;;;10.39;76.61;102081.56;4929364;29;20607;-75
2021/04/19 08:11:06;;;;;;;30.23;19.98;;;;;;;10.39;76.08;102074.53;4919181;29;20519;-76
2021/04/19 08:13:33;;;;;;;29.30;20.48;;;;;;;10.42;75.09;102079.53;4922545;28;20058;-75
2021/04/19 08:16:26;;;;;;;30.23;20.55;;;;;;;10.52;75.38;102068.38;4900354;29;20060;-75
2021/04/19 08:19:03;;;;;;;31.92;21.73;;;;;;;10.49;75.79;102070.28;4930065;29;20079;-75
2021/04/19 08:21:30;;;;;;;28.75;19.95;;;;;;;10.51;75.69;102072.78;4915986;29;20079;-75
2021/04/19 08:24:17;;;;;;;32.90;20.70;;;;;;;10.45;75.30;102068.00;4928930;29;20941;-75
2021/04/19 08:26:53;;;;;;;26.63;18.52;;;;;;;10.51;75.58;102066.72;4918944;29;20644;-75
2021/04/19 08:29:35;;;;;;;25.73;18.35;;;;;;;10.65;75.64;102075.19;4917338;29;20646;-75
2021/04/19 08:32:04;;;;;;;27.35;19.17;;;;;;;10.80;74.98;102082.84;4929864;29;20318;-75
2021/04/19 08:34:30;;;;;;;;;;;;;;;10.98;75.13;102075.38;4923705;29;20056;-76
2021/04/19 08:36:59;;;;;;;25.45;17.58;;;;;;;11.10;74.50;102079.69;4922189;29;20045;-75
2021/04/19 08:39:26;;;;;;;28.00;18.20;;;;;;;11.15;74.09;102081.94;4923206;29;20404;-76
2021/04/19 08:42:05;;;;;;;25.20;16.25;;;;;;;11.17;74.34;102080.88;4916892;29;20051;-75
2021/04/19 08:44:33;;;;;;;24.48;16.73;;;;;;;11.21;73.99;102077.06;4917577;29;20055;-75
2021/04/19 08:47:01;;;;;;;22.23;16.17;;;;;;;11.33;74.00;102084.91;4929919;29;20062;-76
2021/04/19 08:49:29;;;;;;;23.52;17.00;;;;;;;11.40;72.76;102079.06;4903880;29;20228;-77
2021/04/19 08:51:56;;;;;;;27.00;16.75;;;;;;;11.46;74.08;102083.00;4930023;29;20055;-77
2021/04/19 08:54:22;;;;;;;21.95;16.15;;;;;;;11.55;73.19;102081.44;4939405;29;20090;-77
2021/04/19 08:56:49;;;;;;;24.40;15.02;;;;;;;11.62;72.36;102078.22;4916879;29;20490;-77
2021/04/19 08:59:30;;;;;;;25.05;16.42;;;;;;;11.65;71.75;102077.13;4922338;29;20051;-75
2021/04/19 09:01:57;;;;;;;22.75;15.85;;;;;;;11.64;72.01;102080.69;4920259;29;20510;-75
2021/04/19 09:04:24;;;;;;;26.60;16.00;;;;;;;11.62;72.11;102080.84;4911664;29;20058;-75
2021/04/19 09:06:55;;;;;;;21.90;15.60;;;;;;;11.64;71.72;102081.53;4910352;29;20040;-75
2021/04/19 09:09:39;;;;;;;23.55;15.73;;;;;;;11.67;72.19;102069.94;4924969;29;20085;-76
2021/04/19 09:12:08;;;;;;;20.20;14.48;;;;;;;11.76;71.64;102077.09;4921987;29;20612;-76
2021/04/19 09:14:36;;;;;;;23.10;14.63;;;;;;;11.86;71.55;102078.03;4914396;29;20107;-76
2021/04/19 09:17:03;;;;;;;21.60;15.13;;;;;;;11.86;71.40;102067.50;4928342;29;20055;-75
2021/04/19 09:19:30;;;;;;;21.25;14.85;;;;;;;11.91;71.48;102064.53;4926924;29;20204;-77
2021/04/19 09:22:08;;;;;;;24.27;16.45;;;;;;;12.03;71.46;102075.84;4917648;29;20139;-75
2021/04/19 09:25:09;;;;;;;24.25;16.05;;;;;;;12.09;71.22;102075.31;4918423;28;20055;-76
2021/04/19 09:27:52;;;;;;;21.60;14.32;;;;;;;12.20;70.86;102077.09;4928753;29;20055;-76
2021/04/19 09:30:32;;;;;;;25.98;17.02;;;;;;;12.31;70.91;102074.41;4906043;29;20487;-76
2021/04/19 09:33:04;;;;;;;20.27;14.60;;;;;;;12.41;71.10;102071.88;4930384;29;20435;-76
2021/04/19 09:35:40;;;;;;;17.45;13.65;;;;;;;12.46;70.22;102069.66;4919244;29;20394;-76
2021/04/19 09:38:12;;;;;;;19.95;14.35;;;;;;;12.74;69.96;102069.97;4903752;29;20059;-76
2021/04/19 09:40:49;;;;;;;17.98;13.18;;;;;;;12.79;69.14;102065.16;4925053;29;20463;-76
2021/04/19 09:43:35;;;;;;;20.50;14.38;;;;;;;12.85;69.06;102068.09;4921159;29;20059;-76
2021/04/19 09:46:09;;;;;;;20.70;13.70;;;;;;;12.90;68.94;102072.97;4926053;29;20059;-76
2021/04/19 09:48:46;;;;;;;20.42;14.20;;;;;;;12.98;68.44;102080.22;4924265;29;20078;-76
2021/04/19 09:51:24;;;;;;;18.48;13.60;;;;;;;13.22;68.64;102064.94;4921956;29;20066;-76
2021/04/19 09:57:10;;;;;;;19.85;13.23;;;;;;;13.39;68.18;102063.50;4979644;28;20055;-73
2021/04/19 09:59:36;;;;;;;17.20;13.68;;;;;;;13.45;67.61;102065.59;4976886;28;20073;-72
2021/04/19 10:02:03;;;;;;;17.80;13.35;;;;;;;13.43;66.78;102058.78;4983552;28;20122;-76
2021/04/19 10:04:35;;;;;;;18.73;13.27;;;;;;;13.58;66.14;102065.34;4970150;28;20061;-73
2021/04/19 10:07:02;;;;;;;21.55;13.07;;;;;;;13.71;66.35;102061.63;4962451;28;20389;-76
2021/04/19 10:09:30;;;;;;;18.00;13.57;;;;;;;13.64;64.97;102064.81;4965540;28;20050;-75
2021/04/19 10:11:59;;;;;;;19.27;13.52;;;;;;;13.61;65.11;102065.06;4977748;28;20057;-74
2021/04/19 10:14:27;;;;;;;18.33;13.15;;;;;;;13.62;64.63;102043.03;4980371;28;20077;-73
2021/04/19 10:16:53;;;;;;;18.00;12.93;;;;;;;13.62;64.89;102050.94;4956328;28;20054;-73
2021/04/19 10:19:23;;;;;;;19.73;12.85;;;;;;;13.62;65.13;102058.84;4960474;28;20078;-74
2021/04/19 10:22:17;;;;;;;20.02;14.68;;;;;;;13.60;64.50;102046.75;4976257;28;20050;-74
2021/04/19 10:24:52;;;;;;;16.35;12.98;;;;;;;13.65;64.95;102055.91;4978389;28;20050;-74
2021/04/19 10:27:28;;;;;;;17.42;13.55;;;;;;;13.65;65.06;102045.38;4977172;28;20051;-74
2021/04/19 10:30:07;;;;;;;18.40;14.00;;;;;;;13.94;65.76;102049.03;4982868;28;20112;-73
2021/04/19 10:32:33;;;;;;;19.70;13.90;;;;;;;14.07;64.95;102046.09;4977182;28;20073;-74
2021/04/19 10:34:59;;;;;;;18.35;14.45;;;;;;;14.07;64.21;102052.19;4976937;28;20089;-73
2021/04/19 10:37:25;;;;;;;17.00;13.70;;;;;;;14.08;63.54;102045.13;4977453;28;20049;-74
2021/04/19 10:39:51;;;;;;;16.17;13.43;;;;;;;14.23;63.53;102035.81;4961699;28;20120;-74
2021/04/19 10:42:23;;;;;;;17.60;14.32;;;;;;;14.38;63.85;102041.47;4983671;28;20050;-74
2021/04/19 10:44:50;;;;;;;15.75;13.13;;;;;;;14.49;62.61;102038.69;4974904;28;20047;-76
2021/04/19 10:47:29;;;;;;;16.63;13.65;;;;;;;14.81;62.47;102029.56;4979977;28;20046;-76
2021/04/19 10:49:56;;;;;;;16.83;13.70;;;;;;;14.74;61.41;102036.41;4967167;28;20062;-76
2021/04/19 10:52:22;;;;;;;17.48;13.70;;;;;;;14.86;61.90;102023.84;4978204;28;20130;-72
2021/04/19 10:54:49;;;;;;;15.23;12.73;;;;;;;14.83;61.64;102035.53;4966765;28;20057;-73
2021/04/19 10:57:24;;;;;;;15.10;12.73;;;;;;;14.81;60.89;102035.69;4958133;28;20483;-73
2021/04/19 10:59:55;;;;;;;15.95;12.52;;;;;;;14.87;61.57;102017.59;4976725;28;20054;-73
2021/04/19 11:02:23;;;;;;;14.05;12.00;;;;;;;14.89;61.40;102023.56;4957751;28;20111;-73
2021/04/19 11:04:50;;;;;;;14.57;11.93;;;;;;;14.93;61.63;102019.66;4981319;28;20144;-73
2021/04/19 11:07:31;;;;;;;13.30;11.55;;;;;;;14.91;61.16;102027.72;4971725;28;20053;-73
2021/04/19 11:10:16;;;;;;;13.55;10.88;;;;;;;14.84;60.60;102018.72;4987666;28;20455;-72
2021/04/19 11:12:53;;;;;;;13.35;11.13;;;;;;;14.82;60.25;102020.69;4973529;28;20050;-73
2021/04/19 11:15:21;;;;;;;13.38;10.50;;;;;;;14.87;59.83;102017.59;4974202;28;20123;-73
2021/04/19 11:17:47;;;;;;;12.75;10.55;;;;;;;14.95;59.88;102023.00;4964494;28;20062;-73
2021/04/19 11:20:21;;;;;;;12.02;10.27;;;;;;;15.22;59.70;102016.88;4977832;28;20058;-73
2021/04/19 11:22:47;;;;;;;14.07;10.48;;;;;;;15.69;59.64;102014.06;4984051;28;20486;-73
2021/04/19 11:25:18;;;;;;;12.88;10.63;;;;;;;16.19;59.05;102018.81;4977097;28;20053;-72
2021/04/19 11:27:46;;;;;;;15.05;11.02;;;;;;;16.32;56.99;102023.69;4966114;28;20061;-73
2021/04/19 11:30:24;;;;;;;13.30;10.75;;;;;;;16.36;55.89;102008.34;4972892;28;20782;-73
2021/04/19 11:33:21;;;;;;;13.35;9.98;;;;;;;16.57;55.69;102008.78;4978000;28;20409;-74
2021/04/19 11:35:49;;;;;;;13.77;9.70;;;;;;;16.47;54.97;102018.69;4947113;28;20937;-76